sensor_id;sensor_type;location;lat;lon;timestamp;temperature;humidity
8527;DHT22;4301;48.362;8.478;2023-05-25T00:00:17;6.00;1.00
8527;DHT22;4301;48.362;8.478;2023-05-25T00:02:45;6.00;1.00
8527;DHT22;4301;48.362;8.478;2023-05-25T00:05:12;5.90;1.00
8527;DHT22;4301;48.362;8.478;2023-05-25T00:07:40;5.90;1.00
8527;DHT22;4301;48.362;8.478;2023-05-25T00:10:08;5.90;1.00
8527;DHT22;4301;48.362;8.478;2023-05-25T00:12:35;5.90;1.00
8527;DHT22;4301;48.362;8.478;2023-05-25T00:15:03;5.90;1.00
8527;DHT22;4301;48.362;8.478;2023-05-25T00:17:30;6.00;1.00
8527;DHT22;4301;48.362;8.478;2023-05-25T00:19:58;6.00;1.00
8527;DHT22;4301;48.362;8.478;2023-05-25T00:22:32;6.00;1.00
8527;DHT22;4301;48.362;8.478;2023-05-25T00:25:00;6.00;1.00
8527;DHT22;4301;48.362;8.478;2023-05-25T00:27:28;6.20;1.00
8527;DHT22;4301;48.362;8.478;2023-05-25T00:29:55;6.20;1.00
8527;DHT22;4301;48.362;8.478;2023-05-25T00:32:22;6.20;1.00
8527;DHT22;4301;48.362;8.478;2023-05-25T00:34:49;6.20;1.00
8527;DHT22;4301;48.362;8.478;2023-05-25T00:37:16;6.30;1.00
8527;DHT22;4301;48.362;8.478;2023-05-25T00:39:43;6.30;1.00
8527;DHT22;4301;48.362;8.478;2023-05-25T00:42:10;6.40;1.00
8527;DHT22;4301;48.362;8.478;2023-05-25T00:44:39;6.50;1.00
8527;DHT22;4301;48.362;8.478;2023-05-25T00:47:06;6.60;1.00
8527;DHT22;4301;48.362;8.478;2023-05-25T00:49:34;6.80;1.00
8527;DHT22;4301;48.362;8.478;2023-05-25T00:52:01;6.80;1.00
8527;DHT22;4301;48.362;8.478;2023-05-25T00:54:28;7.00;1.00
8527;DHT22;4301;48.362;8.478;2023-05-25T00:57:00;7.10;1.00
8527;DHT22;4301;48.362;8.478;2023-05-25T00:59:31;7.30;99.90
8527;DHT22;4301;48.362;8.478;2023-05-25T01:02:03;7.30;99.90
8527;DHT22;4301;48.362;8.478;2023-05-25T01:04:34;7.40;99.90
8527;DHT22;4301;48.362;8.478;2023-05-25T01:07:04;7.50;99.90
8527;DHT22;4301;48.362;8.478;2023-05-25T01:09:33;7.60;99.90
8527;DHT22;4301;48.362;8.478;2023-05-25T01:12:01;7.60;1.00
8527;DHT22;4301;48.362;8.478;2023-05-25T01:14:29;7.70;1.00
8527;DHT22;4301;48.362;8.478;2023-05-25T01:16:56;7.70;1.00
8527;DHT22;4301;48.362;8.478;2023-05-25T01:19:25;7.70;99.90
8527;DHT22;4301;48.362;8.478;2023-05-25T01:22:01;7.70;1.00
8527;DHT22;4301;48.362;8.478;2023-05-25T01:24:33;7.70;1.00
8527;DHT22;4301;48.362;8.478;2023-05-25T01:27:10;7.70;1.00
8527;DHT22;4301;48.362;8.478;2023-05-25T01:29:39;7.70;99.90
8527;DHT22;4301;48.362;8.478;2023-05-25T01:32:07;7.60;99.90
8527;DHT22;4301;48.362;8.478;2023-05-25T01:34:36;7.60;99.90
8527;DHT22;4301;48.362;8.478;2023-05-25T01:37:05;7.60;1.00
8527;DHT22;4301;48.362;8.478;2023-05-25T01:39:32;7.70;1.00
8527;DHT22;4301;48.362;8.478;2023-05-25T01:41:59;7.70;61.80
8527;DHT22;4301;48.362;8.478;2023-05-25T01:44:27;7.70;99.90
8527;DHT22;4301;48.362;8.478;2023-05-25T01:47:00;7.70;1.00
8527;DHT22;4301;48.362;8.478;2023-05-25T01:49:45;7.70;1.00
8527;DHT22;4301;48.362;8.478;2023-05-25T01:52:20;7.70;1.00
8527;DHT22;4301;48.362;8.478;2023-05-25T01:54:52;7.70;1.00
8527;DHT22;4301;48.362;8.478;2023-05-25T01:57:21;7.80;99.90
8527;DHT22;4301;48.362;8.478;2023-05-25T01:59:51;7.80;1.00
8527;DHT22;4301;48.362;8.478;2023-05-25T02:02:20;7.80;1.00
8527;DHT22;4301;48.362;8.478;2023-05-25T02:04:48;7.80;1.00
8527;DHT22;4301;48.362;8.478;2023-05-25T02:07:16;7.80;1.00
8527;DHT22;4301;48.362;8.478;2023-05-25T02:09:43;7.80;1.00
8527;DHT22;4301;48.362;8.478;2023-05-25T02:12:10;7.80;1.00
8527;DHT22;4301;48.362;8.478;2023-05-25T02:14:37;7.80;1.00
8527;DHT22;4301;48.362;8.478;2023-05-25T02:17:04;7.80;1.00
8527;DHT22;4301;48.362;8.478;2023-05-25T02:19:33;7.80;1.00
8527;DHT22;4301;48.362;8.478;2023-05-25T02:22:00;7.90;1.00
8527;DHT22;4301;48.362;8.478;2023-05-25T02:24:28;7.90;1.00
8527;DHT22;4301;48.362;8.478;2023-05-25T02:26:55;7.90;1.00
8527;DHT22;4301;48.362;8.478;2023-05-25T02:29:22;7.90;1.00
8527;DHT22;4301;48.362;8.478;2023-05-25T02:31:49;7.90;1.00
8527;DHT22;4301;48.362;8.478;2023-05-25T02:34:16;7.80;1.00
8527;DHT22;4301;48.362;8.478;2023-05-25T02:36:43;7.90;1.00
8527;DHT22;4301;48.362;8.478;2023-05-25T02:39:10;7.90;1.00
8527;DHT22;4301;48.362;8.478;2023-05-25T02:41:39;7.90;1.00
8527;DHT22;4301;48.362;8.478;2023-05-25T02:44:06;7.90;1.00
8527;DHT22;4301;48.362;8.478;2023-05-25T02:46:32;7.90;1.00
8527;DHT22;4301;48.362;8.478;2023-05-25T02:49:00;7.90;1.00
8527;DHT22;4301;48.362;8.478;2023-05-25T02:51:27;7.90;1.00
8527;DHT22;4301;48.362;8.478;2023-05-25T02:53:54;7.90;1.00
8527;DHT22;4301;48.362;8.478;2023-05-25T02:56:21;7.90;1.00
8527;DHT22;4301;48.362;8.478;2023-05-25T02:58:49;7.80;1.00
8527;DHT22;4301;48.362;8.478;2023-05-25T03:01:16;7.70;45.80
8527;DHT22;4301;48.362;8.478;2023-05-25T03:03:44;7.70;99.90
8527;DHT22;4301;48.362;8.478;2023-05-25T03:06:11;7.60;99.90
8527;DHT22;4301;48.362;8.478;2023-05-25T03:08:38;7.60;99.90
8527;DHT22;4301;48.362;8.478;2023-05-25T03:11:06;7.50;99.90
8527;DHT22;4301;48.362;8.478;2023-05-25T03:13:32;7.40;1.00
8527;DHT22;4301;48.362;8.478;2023-05-25T03:16:01;7.40;99.90
8527;DHT22;4301;48.362;8.478;2023-05-25T03:18:28;7.40;1.00
8527;DHT22;4301;48.362;8.478;2023-05-25T03:20:55;7.30;1.00
8527;DHT22;4301;48.362;8.478;2023-05-25T03:23:22;7.20;1.00
8527;DHT22;4301;48.362;8.478;2023-05-25T03:25:49;7.20;1.00
8527;DHT22;4301;48.362;8.478;2023-05-25T03:28:16;7.10;1.00
8527;DHT22;4301;48.362;8.478;2023-05-25T03:30:43;7.10;1.00
8527;DHT22;4301;48.362;8.478;2023-05-25T03:33:11;7.10;1.00
8527;DHT22;4301;48.362;8.478;2023-05-25T03:35:39;7.00;1.00
8527;DHT22;4301;48.362;8.478;2023-05-25T03:38:06;7.10;1.00
8527;DHT22;4301;48.362;8.478;2023-05-25T03:40:32;7.10;1.00
8527;DHT22;4301;48.362;8.478;2023-05-25T03:42:59;7.10;1.00
8527;DHT22;4301;48.362;8.478;2023-05-25T03:45:26;7.10;1.00
8527;DHT22;4301;48.362;8.478;2023-05-25T03:47:53;7.20;1.00
8527;DHT22;4301;48.362;8.478;2023-05-25T03:50:22;7.20;1.00
8527;DHT22;4301;48.362;8.478;2023-05-25T03:52:49;7.10;1.00
8527;DHT22;4301;48.362;8.478;2023-05-25T03:55:16;7.10;1.00
8527;DHT22;4301;48.362;8.478;2023-05-25T03:57:43;7.10;1.00
8527;DHT22;4301;48.362;8.478;2023-05-25T04:00:11;7.10;1.00
8527;DHT22;4301;48.362;8.478;2023-05-25T04:02:38;7.10;1.00
8527;DHT22;4301;48.362;8.478;2023-05-25T04:05:05;7.10;1.00
8527;DHT22;4301;48.362;8.478;2023-05-25T04:07:34;7.10;1.00
8527;DHT22;4301;48.362;8.478;2023-05-25T04:10:01;7.10;1.00
8527;DHT22;4301;48.362;8.478;2023-05-25T04:12:28;7.10;1.00
8527;DHT22;4301;48.362;8.478;2023-05-25T04:14:56;7.10;1.00
8527;DHT22;4301;48.362;8.478;2023-05-25T04:17:24;7.10;1.00
8527;DHT22;4301;48.362;8.478;2023-05-25T04:19:51;7.10;1.00
8527;DHT22;4301;48.362;8.478;2023-05-25T04:22:17;7.10;1.00
8527;DHT22;4301;48.362;8.478;2023-05-25T04:24:46;7.30;1.00
8527;DHT22;4301;48.362;8.478;2023-05-25T04:27:13;7.10;1.00
8527;DHT22;4301;48.362;8.478;2023-05-25T04:29:40;7.10;1.00
8527;DHT22;4301;48.362;8.478;2023-05-25T04:32:07;7.10;1.00
8527;DHT22;4301;48.362;8.478;2023-05-25T04:34:35;7.10;1.00
8527;DHT22;4301;48.362;8.478;2023-05-25T04:37:02;7.10;1.00
8527;DHT22;4301;48.362;8.478;2023-05-25T04:39:30;7.20;1.00
8527;DHT22;4301;48.362;8.478;2023-05-25T04:41:59;7.20;1.00
8527;DHT22;4301;48.362;8.478;2023-05-25T04:44:29;7.20;1.00
8527;DHT22;4301;48.362;8.478;2023-05-25T04:46:55;7.30;1.00
8527;DHT22;4301;48.362;8.478;2023-05-25T04:49:24;7.30;1.00
8527;DHT22;4301;48.362;8.478;2023-05-25T04:51:51;7.40;1.00
8527;DHT22;4301;48.362;8.478;2023-05-25T04:54:18;7.40;1.00
8527;DHT22;4301;48.362;8.478;2023-05-25T04:56:44;7.50;1.00
8527;DHT22;4301;48.362;8.478;2023-05-25T04:59:13;7.50;1.00
8527;DHT22;4301;48.362;8.478;2023-05-25T05:01:40;7.60;1.00
8527;DHT22;4301;48.362;8.478;2023-05-25T05:04:09;7.70;1.00
8527;DHT22;4301;48.362;8.478;2023-05-25T05:06:36;7.70;1.00
8527;DHT22;4301;48.362;8.478;2023-05-25T05:09:03;7.70;1.00
8527;DHT22;4301;48.362;8.478;2023-05-25T05:11:30;7.80;1.00
8527;DHT22;4301;48.362;8.478;2023-05-25T05:13:57;7.80;1.00
8527;DHT22;4301;48.362;8.478;2023-05-25T05:16:26;7.90;1.00
8527;DHT22;4301;48.362;8.478;2023-05-25T05:18:58;7.90;1.00
8527;DHT22;4301;48.362;8.478;2023-05-25T05:21:25;8.00;1.00
8527;DHT22;4301;48.362;8.478;2023-05-25T05:23:52;8.10;1.00
8527;DHT22;4301;48.362;8.478;2023-05-25T05:26:20;8.10;1.00
8527;DHT22;4301;48.362;8.478;2023-05-25T05:28:47;8.20;1.00
8527;DHT22;4301;48.362;8.478;2023-05-25T05:31:17;8.30;1.00
8527;DHT22;4301;48.362;8.478;2023-05-25T05:33:45;8.40;1.00
8527;DHT22;4301;48.362;8.478;2023-05-25T05:36:12;8.50;99.90
8527;DHT22;4301;48.362;8.478;2023-05-25T05:38:39;8.50;99.90
8527;DHT22;4301;48.362;8.478;2023-05-25T05:41:06;8.60;99.90
8527;DHT22;4301;48.362;8.478;2023-05-25T05:43:38;8.70;99.90
8527;DHT22;4301;48.362;8.478;2023-05-25T05:46:07;8.70;1.00
8527;DHT22;4301;48.362;8.478;2023-05-25T05:48:34;8.90;99.90
8527;DHT22;4301;48.362;8.478;2023-05-25T05:51:02;8.90;99.90
8527;DHT22;4301;48.362;8.478;2023-05-25T05:53:29;9.00;99.90
8527;DHT22;4301;48.362;8.478;2023-05-25T05:55:57;9.10;99.90
8527;DHT22;4301;48.362;8.478;2023-05-25T05:58:24;9.20;1.00
8527;DHT22;4301;48.362;8.478;2023-05-25T06:00:52;9.20;13.40
8527;DHT22;4301;48.362;8.478;2023-05-25T06:03:21;9.30;94.90
8527;DHT22;4301;48.362;8.478;2023-05-25T06:05:48;9.30;29.30
8527;DHT22;4301;48.362;8.478;2023-05-25T06:08:16;9.40;1.00
8527;DHT22;4301;48.362;8.478;2023-05-25T06:10:43;9.50;1.00
8527;DHT22;4301;48.362;8.478;2023-05-25T06:13:10;9.50;1.00
8527;DHT22;4301;48.362;8.478;2023-05-25T06:15:37;9.60;1.00
8527;DHT22;4301;48.362;8.478;2023-05-25T06:18:05;9.70;1.00
8527;DHT22;4301;48.362;8.478;2023-05-25T06:20:32;9.80;99.90
8527;DHT22;4301;48.362;8.478;2023-05-25T06:22:59;9.80;22.90
8527;DHT22;4301;48.362;8.478;2023-05-25T06:25:28;9.90;99.90
8527;DHT22;4301;48.362;8.478;2023-05-25T06:27:56;10.00;1.00
8527;DHT22;4301;48.362;8.478;2023-05-25T06:30:23;10.10;1.00
8527;DHT22;4301;48.362;8.478;2023-05-25T06:32:50;10.20;99.90
8527;DHT22;4301;48.362;8.478;2023-05-25T06:35:16;10.40;29.70
8527;DHT22;4301;48.362;8.478;2023-05-25T06:37:46;10.50;99.90
8527;DHT22;4301;48.362;8.478;2023-05-25T06:40:13;10.70;99.90
8527;DHT22;4301;48.362;8.478;2023-05-25T06:42:42;10.80;99.90
8527;DHT22;4301;48.362;8.478;2023-05-25T06:45:09;11.00;1.00
8527;DHT22;4301;48.362;8.478;2023-05-25T06:47:36;11.20;99.90
8527;DHT22;4301;48.362;8.478;2023-05-25T06:50:04;11.30;1.00
8527;DHT22;4301;48.362;8.478;2023-05-25T06:52:31;11.50;99.90
8527;DHT22;4301;48.362;8.478;2023-05-25T06:54:58;11.50;1.00
8527;DHT22;4301;48.362;8.478;2023-05-25T06:57:25;11.40;6.80
8527;DHT22;4301;48.362;8.478;2023-05-25T06:59:53;11.40;99.90
8527;DHT22;4301;48.362;8.478;2023-05-25T07:02:20;11.50;99.90
8527;DHT22;4301;48.362;8.478;2023-05-25T07:04:47;11.50;99.90
8527;DHT22;4301;48.362;8.478;2023-05-25T07:07:14;11.60;99.90
8527;DHT22;4301;48.362;8.478;2023-05-25T07:09:41;11.70;1.00
8527;DHT22;4301;48.362;8.478;2023-05-25T07:12:08;11.60;99.90
8527;DHT22;4301;48.362;8.478;2023-05-25T07:14:36;11.80;99.90
8527;DHT22;4301;48.362;8.478;2023-05-25T07:17:04;11.70;99.90
8527;DHT22;4301;48.362;8.478;2023-05-25T07:19:31;11.70;1.00
8527;DHT22;4301;48.362;8.478;2023-05-25T07:21:58;11.70;99.90
8527;DHT22;4301;48.362;8.478;2023-05-25T07:24:25;11.70;1.00
8527;DHT22;4301;48.362;8.478;2023-05-25T07:26:52;11.80;1.00
8527;DHT22;4301;48.362;8.478;2023-05-25T07:29:19;11.80;1.00
8527;DHT22;4301;48.362;8.478;2023-05-25T07:31:46;11.80;99.90
8527;DHT22;4301;48.362;8.478;2023-05-25T07:34:15;11.70;1.00
8527;DHT22;4301;48.362;8.478;2023-05-25T07:36:42;11.80;1.00
8527;DHT22;4301;48.362;8.478;2023-05-25T07:39:09;11.80;99.90
8527;DHT22;4301;48.362;8.478;2023-05-25T07:41:36;11.90;99.90
8527;DHT22;4301;48.362;8.478;2023-05-25T07:44:03;12.10;1.00
8527;DHT22;4301;48.362;8.478;2023-05-25T07:46:30;12.40;99.90
8527;DHT22;4301;48.362;8.478;2023-05-25T07:48:57;12.50;99.90
8527;DHT22;4301;48.362;8.478;2023-05-25T07:51:27;12.50;99.40
8527;DHT22;4301;48.362;8.478;2023-05-25T07:53:55;12.70;99.90
8527;DHT22;4301;48.362;8.478;2023-05-25T07:56:23;12.70;99.90
8527;DHT22;4301;48.362;8.478;2023-05-25T07:58:50;12.60;1.00
8527;DHT22;4301;48.362;8.478;2023-05-25T08:01:16;12.70;1.00
8527;DHT22;4301;48.362;8.478;2023-05-25T08:03:43;12.80;56.10
8527;DHT22;4301;48.362;8.478;2023-05-25T08:06:10;12.90;1.00
8527;DHT22;4301;48.362;8.478;2023-05-25T08:08:39;12.90;1.00
8527;DHT22;4301;48.362;8.478;2023-05-25T08:11:06;12.80;99.90
8527;DHT22;4301;48.362;8.478;2023-05-25T08:13:34;12.90;99.90
8527;DHT22;4301;48.362;8.478;2023-05-25T08:16:01;13.00;1.00
8527;DHT22;4301;48.362;8.478;2023-05-25T08:18:27;12.90;99.90
8527;DHT22;4301;48.362;8.478;2023-05-25T08:20:56;13.00;1.00
8527;DHT22;4301;48.362;8.478;2023-05-25T08:23:22;13.00;1.00
8527;DHT22;4301;48.362;8.478;2023-05-25T08:25:51;12.90;1.00
8527;DHT22;4301;48.362;8.478;2023-05-25T08:28:19;13.00;1.00
8527;DHT22;4301;48.362;8.478;2023-05-25T08:30:45;13.10;1.00
8527;DHT22;4301;48.362;8.478;2023-05-25T08:33:12;13.20;99.90
8527;DHT22;4301;48.362;8.478;2023-05-25T08:35:39;13.30;1.00
8527;DHT22;4301;48.362;8.478;2023-05-25T08:38:07;13.30;1.00
8527;DHT22;4301;48.362;8.478;2023-05-25T08:40:34;13.40;1.00
8527;DHT22;4301;48.362;8.478;2023-05-25T08:43:03;13.40;99.90
8527;DHT22;4301;48.362;8.478;2023-05-25T08:45:29;13.50;99.90
8527;DHT22;4301;48.362;8.478;2023-05-25T08:47:58;13.50;1.00
8527;DHT22;4301;48.362;8.478;2023-05-25T08:50:26;13.60;1.00
8527;DHT22;4301;48.362;8.478;2023-05-25T08:52:54;13.60;1.00
8527;DHT22;4301;48.362;8.478;2023-05-25T08:55:25;13.80;99.90
8527;DHT22;4301;48.362;8.478;2023-05-25T08:58:04;14.00;1.00
8527;DHT22;4301;48.362;8.478;2023-05-25T09:00:35;14.00;1.00
8527;DHT22;4301;48.362;8.478;2023-05-25T09:03:07;14.20;99.90
8527;DHT22;4301;48.362;8.478;2023-05-25T09:05:35;14.50;1.00
8527;DHT22;4301;48.362;8.478;2023-05-25T09:08:03;14.60;99.90
8527;DHT22;4301;48.362;8.478;2023-05-25T09:10:32;14.60;1.00
8527;DHT22;4301;48.362;8.478;2023-05-25T09:13:00;14.80;99.90
8527;DHT22;4301;48.362;8.478;2023-05-25T09:15:29;15.00;1.00
8527;DHT22;4301;48.362;8.478;2023-05-25T09:17:56;15.20;1.00
8527;DHT22;4301;48.362;8.478;2023-05-25T09:20:24;15.60;1.00
8527;DHT22;4301;48.362;8.478;2023-05-25T09:22:56;15.60;9.40
8527;DHT22;4301;48.362;8.478;2023-05-25T09:25:23;15.60;43.80
8527;DHT22;4301;48.362;8.478;2023-05-25T09:27:52;15.60;1.00
8527;DHT22;4301;48.362;8.478;2023-05-25T09:30:21;15.60;99.90
8527;DHT22;4301;48.362;8.478;2023-05-25T09:32:49;15.60;1.00
8527;DHT22;4301;48.362;8.478;2023-05-25T09:35:17;15.70;1.00
8527;DHT22;4301;48.362;8.478;2023-05-25T09:37:44;15.70;1.00
8527;DHT22;4301;48.362;8.478;2023-05-25T09:40:12;15.80;1.00
8527;DHT22;4301;48.362;8.478;2023-05-25T09:42:39;15.90;99.90
8527;DHT22;4301;48.362;8.478;2023-05-25T09:45:07;15.90;1.00
8527;DHT22;4301;48.362;8.478;2023-05-25T09:47:35;15.80;1.00
8527;DHT22;4301;48.362;8.478;2023-05-25T09:50:05;15.80;1.00
8527;DHT22;4301;48.362;8.478;2023-05-25T09:52:32;15.80;99.90
8527;DHT22;4301;48.362;8.478;2023-05-25T09:55:01;15.50;1.00
8527;DHT22;4301;48.362;8.478;2023-05-25T09:57:28;15.60;1.00
8527;DHT22;4301;48.362;8.478;2023-05-25T09:59:55;15.80;1.00
8527;DHT22;4301;48.362;8.478;2023-05-25T10:02:22;15.70;1.00
8527;DHT22;4301;48.362;8.478;2023-05-25T10:04:49;16.00;1.00
8527;DHT22;4301;48.362;8.478;2023-05-25T10:07:18;16.30;99.90
8527;DHT22;4301;48.362;8.478;2023-05-25T10:09:45;16.60;99.90
8527;DHT22;4301;48.362;8.478;2023-05-25T10:12:16;16.80;99.90
8527;DHT22;4301;48.362;8.478;2023-05-25T10:14:45;16.80;25.40
8527;DHT22;4301;48.362;8.478;2023-05-25T10:17:22;16.80;1.00
8527;DHT22;4301;48.362;8.478;2023-05-25T10:19:54;16.50;99.90
8527;DHT22;4301;48.362;8.478;2023-05-25T10:22:25;16.50;55.50
8527;DHT22;4301;48.362;8.478;2023-05-25T10:24:58;16.40;99.90
8527;DHT22;4301;48.362;8.478;2023-05-25T10:27:33;16.50;99.90
8527;DHT22;4301;48.362;8.478;2023-05-25T10:30:00;16.40;99.90
8527;DHT22;4301;48.362;8.478;2023-05-25T10:32:29;16.30;99.90
8527;DHT22;4301;48.362;8.478;2023-05-25T10:34:58;16.30;99.90
8527;DHT22;4301;48.362;8.478;2023-05-25T10:37:27;16.20;1.00
8527;DHT22;4301;48.362;8.478;2023-05-25T10:39:56;16.30;99.90
8527;DHT22;4301;48.362;8.478;2023-05-25T10:42:24;16.30;1.00
8527;DHT22;4301;48.362;8.478;2023-05-25T10:44:51;16.40;1.00
8527;DHT22;4301;48.362;8.478;2023-05-25T10:47:19;16.50;1.00
8527;DHT22;4301;48.362;8.478;2023-05-25T10:49:54;16.60;99.90
8527;DHT22;4301;48.362;8.478;2023-05-25T10:52:27;16.80;22.70
8527;DHT22;4301;48.362;8.478;2023-05-25T10:54:55;16.90;43.80
8527;DHT22;4301;48.362;8.478;2023-05-25T10:57:23;17.00;25.30
8527;DHT22;4301;48.362;8.478;2023-05-25T10:59:51;17.10;99.90
8527;DHT22;4301;48.362;8.478;2023-05-25T11:02:20;17.40;25.90
8527;DHT22;4301;48.362;8.478;2023-05-25T11:04:49;17.20;1.00
8527;DHT22;4301;48.362;8.478;2023-05-25T11:07:17;16.90;1.00
8527;DHT22;4301;48.362;8.478;2023-05-25T11:09:56;17.00;1.00
8527;DHT22;4301;48.362;8.478;2023-05-25T11:12:24;17.10;1.00
8527;DHT22;4301;48.362;8.478;2023-05-25T11:15:13;17.70;1.00
8527;DHT22;4301;48.362;8.478;2023-05-25T11:17:44;18.40;1.00
8527;DHT22;4301;48.362;8.478;2023-05-25T11:20:21;19.20;99.90
8527;DHT22;4301;48.362;8.478;2023-05-25T11:22:50;19.60;90.20
8527;DHT22;4301;48.362;8.478;2023-05-25T11:25:38;19.30;1.00
8527;DHT22;4301;48.362;8.478;2023-05-25T11:28:07;19.40;1.00
8527;DHT22;4301;48.362;8.478;2023-05-25T11:30:38;19.20;1.00
8527;DHT22;4301;48.362;8.478;2023-05-25T11:33:05;19.00;1.00
8527;DHT22;4301;48.362;8.478;2023-05-25T11:35:34;18.80;1.00
8527;DHT22;4301;48.362;8.478;2023-05-25T11:38:06;18.60;1.00
8527;DHT22;4301;48.362;8.478;2023-05-25T11:40:34;18.60;1.00
8527;DHT22;4301;48.362;8.478;2023-05-25T11:43:02;18.30;1.00
8527;DHT22;4301;48.362;8.478;2023-05-25T11:45:31;18.30;1.00
8527;DHT22;4301;48.362;8.478;2023-05-25T11:47:59;17.90;11.70
8527;DHT22;4301;48.362;8.478;2023-05-25T11:50:26;18.10;87.30
8527;DHT22;4301;48.362;8.478;2023-05-25T11:52:53;18.30;99.90
8527;DHT22;4301;48.362;8.478;2023-05-25T11:55:21;18.40;99.80
8527;DHT22;4301;48.362;8.478;2023-05-25T11:57:54;18.40;44.30
8527;DHT22;4301;48.362;8.478;2023-05-25T12:00:27;18.20;53.30
8527;DHT22;4301;48.362;8.478;2023-05-25T12:02:55;18.40;41.00
8527;DHT22;4301;48.362;8.478;2023-05-25T12:05:23;18.70;5.30
8527;DHT22;4301;48.362;8.478;2023-05-25T12:07:50;19.10;1.00
8527;DHT22;4301;48.362;8.478;2023-05-25T12:10:17;19.50;1.00
8527;DHT22;4301;48.362;8.478;2023-05-25T12:12:45;19.30;1.00
8527;DHT22;4301;48.362;8.478;2023-05-25T12:15:13;19.00;1.00
8527;DHT22;4301;48.362;8.478;2023-05-25T12:17:43;19.00;1.00
8527;DHT22;4301;48.362;8.478;2023-05-25T12:20:12;18.90;1.00
8527;DHT22;4301;48.362;8.478;2023-05-25T12:22:40;18.60;1.00
8527;DHT22;4301;48.362;8.478;2023-05-25T12:25:08;18.70;1.00
8527;DHT22;4301;48.362;8.478;2023-05-25T12:27:36;19.00;1.00
8527;DHT22;4301;48.362;8.478;2023-05-25T12:30:03;19.00;1.00
8527;DHT22;4301;48.362;8.478;2023-05-25T12:32:31;19.10;1.00
8527;DHT22;4301;48.362;8.478;2023-05-25T12:35:03;19.20;1.00
8527;DHT22;4301;48.362;8.478;2023-05-25T12:37:31;19.10;1.00
8527;DHT22;4301;48.362;8.478;2023-05-25T12:39:58;18.80;1.00
8527;DHT22;4301;48.362;8.478;2023-05-25T12:42:25;18.60;1.00
8527;DHT22;4301;48.362;8.478;2023-05-25T12:44:55;18.30;1.00
8527;DHT22;4301;48.362;8.478;2023-05-25T12:47:25;18.50;1.00
8527;DHT22;4301;48.362;8.478;2023-05-25T12:50:12;18.20;1.00
8527;DHT22;4301;48.362;8.478;2023-05-25T12:52:40;18.30;1.00
8527;DHT22;4301;48.362;8.478;2023-05-25T12:55:23;18.30;1.00
8527;DHT22;4301;48.362;8.478;2023-05-25T12:57:54;18.40;1.00
8527;DHT22;4301;48.362;8.478;2023-05-25T13:00:25;18.30;1.00
8527;DHT22;4301;48.362;8.478;2023-05-25T13:02:53;18.20;1.00
8527;DHT22;4301;48.362;8.478;2023-05-25T13:05:23;18.10;1.00
8527;DHT22;4301;48.362;8.478;2023-05-25T13:07:51;18.30;1.00
8527;DHT22;4301;48.362;8.478;2023-05-25T13:10:19;18.40;1.00
8527;DHT22;4301;48.362;8.478;2023-05-25T13:12:46;18.50;1.00
8527;DHT22;4301;48.362;8.478;2023-05-25T13:15:16;18.60;1.00
8527;DHT22;4301;48.362;8.478;2023-05-25T13:17:45;18.70;1.00
8527;DHT22;4301;48.362;8.478;2023-05-25T13:20:13;18.90;1.00
8527;DHT22;4301;48.362;8.478;2023-05-25T13:22:43;19.10;1.00
8527;DHT22;4301;48.362;8.478;2023-05-25T13:25:11;19.20;1.00
8527;DHT22;4301;48.362;8.478;2023-05-25T13:27:42;19.40;1.00
8527;DHT22;4301;48.362;8.478;2023-05-25T13:30:11;19.50;1.00
8527;DHT22;4301;48.362;8.478;2023-05-25T13:32:43;19.50;1.00
8527;DHT22;4301;48.362;8.478;2023-05-25T13:35:11;19.90;1.00
8527;DHT22;4301;48.362;8.478;2023-05-25T13:37:45;19.70;1.00
8527;DHT22;4301;48.362;8.478;2023-05-25T13:40:12;19.90;1.00
8527;DHT22;4301;48.362;8.478;2023-05-25T13:42:39;19.70;1.00
8527;DHT22;4301;48.362;8.478;2023-05-25T13:45:07;19.70;1.00
8527;DHT22;4301;48.362;8.478;2023-05-25T13:47:34;20.00;1.00
8527;DHT22;4301;48.362;8.478;2023-05-25T13:50:01;20.30;1.00
8527;DHT22;4301;48.362;8.478;2023-05-25T13:52:28;20.30;1.00
8527;DHT22;4301;48.362;8.478;2023-05-25T13:54:57;20.10;1.00
8527;DHT22;4301;48.362;8.478;2023-05-25T13:57:24;20.00;1.00
8527;DHT22;4301;48.362;8.478;2023-05-25T13:59:51;19.70;1.00
8527;DHT22;4301;48.362;8.478;2023-05-25T14:02:17;19.90;1.00
8527;DHT22;4301;48.362;8.478;2023-05-25T14:04:44;20.20;1.00
8527;DHT22;4301;48.362;8.478;2023-05-25T14:07:11;20.30;1.00
8527;DHT22;4301;48.362;8.478;2023-05-25T14:09:38;19.90;1.00
8527;DHT22;4301;48.362;8.478;2023-05-25T14:12:07;19.80;1.00
8527;DHT22;4301;48.362;8.478;2023-05-25T14:14:34;19.80;1.00
8527;DHT22;4301;48.362;8.478;2023-05-25T14:17:01;19.60;1.00
8527;DHT22;4301;48.362;8.478;2023-05-25T14:19:28;19.50;1.00
8527;DHT22;4301;48.362;8.478;2023-05-25T14:21:55;19.60;1.00
8527;DHT22;4301;48.362;8.478;2023-05-25T14:24:22;19.90;1.00
8527;DHT22;4301;48.362;8.478;2023-05-25T14:26:49;20.20;1.00
8527;DHT22;4301;48.362;8.478;2023-05-25T14:29:17;20.40;1.00
8527;DHT22;4301;48.362;8.478;2023-05-25T14:31:44;20.50;1.00
8527;DHT22;4301;48.362;8.478;2023-05-25T14:34:11;20.50;1.00
8527;DHT22;4301;48.362;8.478;2023-05-25T14:36:38;20.40;1.00
8527;DHT22;4301;48.362;8.478;2023-05-25T14:39:05;20.10;1.00
8527;DHT22;4301;48.362;8.478;2023-05-25T14:41:32;20.30;1.00
8527;DHT22;4301;48.362;8.478;2023-05-25T14:43:59;20.30;1.00
8527;DHT22;4301;48.362;8.478;2023-05-25T14:46:27;20.40;1.00
8527;DHT22;4301;48.362;8.478;2023-05-25T14:48:54;20.60;1.00
8527;DHT22;4301;48.362;8.478;2023-05-25T14:51:21;20.90;1.00
8527;DHT22;4301;48.362;8.478;2023-05-25T14:53:48;20.90;1.00
8527;DHT22;4301;48.362;8.478;2023-05-25T14:56:18;21.10;1.00
8527;DHT22;4301;48.362;8.478;2023-05-25T14:58:46;21.10;99.90
8527;DHT22;4301;48.362;8.478;2023-05-25T15:01:12;20.80;99.90
8527;DHT22;4301;48.362;8.478;2023-05-25T15:03:41;20.80;99.90
8527;DHT22;4301;48.362;8.478;2023-05-25T15:06:08;20.70;99.90
8527;DHT22;4301;48.362;8.478;2023-05-25T15:08:35;21.00;99.90
8527;DHT22;4301;48.362;8.478;2023-05-25T15:11:02;21.20;99.90
8527;DHT22;4301;48.362;8.478;2023-05-25T15:13:29;21.20;99.90
8527;DHT22;4301;48.362;8.478;2023-05-25T15:15:56;21.10;99.90
8527;DHT22;4301;48.362;8.478;2023-05-25T15:18:24;20.90;99.90
8527;DHT22;4301;48.362;8.478;2023-05-25T15:20:52;20.80;99.90
8527;DHT22;4301;48.362;8.478;2023-05-25T15:23:19;20.90;99.90
8527;DHT22;4301;48.362;8.478;2023-05-25T15:25:46;20.70;99.90
8527;DHT22;4301;48.362;8.478;2023-05-25T15:28:13;20.40;99.90
8527;DHT22;4301;48.362;8.478;2023-05-25T15:30:40;20.20;99.90
8527;DHT22;4301;48.362;8.478;2023-05-25T15:33:07;20.30;99.90
8527;DHT22;4301;48.362;8.478;2023-05-25T15:35:34;20.50;99.90
8527;DHT22;4301;48.362;8.478;2023-05-25T15:38:02;20.60;99.90
8527;DHT22;4301;48.362;8.478;2023-05-25T15:40:29;20.50;99.90
8527;DHT22;4301;48.362;8.478;2023-05-25T15:42:56;20.80;99.90
8527;DHT22;4301;48.362;8.478;2023-05-25T15:45:23;20.90;99.90
8527;DHT22;4301;48.362;8.478;2023-05-25T15:47:50;20.70;99.90
8527;DHT22;4301;48.362;8.478;2023-05-25T15:50:17;20.60;99.90
8527;DHT22;4301;48.362;8.478;2023-05-25T15:52:44;20.50;99.90
8527;DHT22;4301;48.362;8.478;2023-05-25T15:55:12;20.40;99.90
8527;DHT22;4301;48.362;8.478;2023-05-25T15:57:39;20.30;99.90
8527;DHT22;4301;48.362;8.478;2023-05-25T16:00:07;20.00;99.90
8527;DHT22;4301;48.362;8.478;2023-05-25T16:02:34;20.30;99.90
8527;DHT22;4301;48.362;8.478;2023-05-25T16:05:01;20.20;99.90
8527;DHT22;4301;48.362;8.478;2023-05-25T16:07:30;20.00;99.90
8527;DHT22;4301;48.362;8.478;2023-05-25T16:09:57;19.90;99.90
8527;DHT22;4301;48.362;8.478;2023-05-25T16:12:25;19.90;99.90
8527;DHT22;4301;48.362;8.478;2023-05-25T16:14:53;19.70;99.90
8527;DHT22;4301;48.362;8.478;2023-05-25T16:17:20;19.60;99.90
8527;DHT22;4301;48.362;8.478;2023-05-25T16:19:47;19.70;99.90
8527;DHT22;4301;48.362;8.478;2023-05-25T16:22:14;19.90;99.90
8527;DHT22;4301;48.362;8.478;2023-05-25T16:24:41;20.10;99.90